sensor_id;sensor_type;location;lat;lon;timestamp;P1;durP1;ratioP1;P2;durP2;ratioP2
990;SDS011;484;48.128;11.602;2024-02-23T00:01:56;0.67;;;0.60;;
990;SDS011;484;48.128;11.602;2024-02-23T00:04:42;0.50;;;0.50;;
990;SDS011;484;48.128;11.602;2024-02-23T00:07:28;0.60;;;0.60;;
990;SDS011;484;48.128;11.602;2024-02-23T00:10:13;0.80;;;0.60;;
990;SDS011;484;48.128;11.602;2024-02-23T00:12:59;0.57;;;0.57;;
990;SDS011;484;48.128;11.602;2024-02-23T00:15:44;0.70;;;0.70;;
990;SDS011;484;48.128;11.602;2024-02-23T00:18:30;0.80;;;0.80;;
990;SDS011;484;48.128;11.602;2024-02-23T00:21:18;0.83;;;0.70;;
990;SDS011;484;48.128;11.602;2024-02-23T00:24:05;0.50;;;0.50;;
990;SDS011;484;48.128;11.602;2024-02-23T00:26:51;0.50;;;0.50;;
990;SDS011;484;48.128;11.602;2024-02-23T00:29:36;0.70;;;0.60;;
990;SDS011;484;48.128;11.602;2024-02-23T00:32:22;0.80;;;0.70;;
990;SDS011;484;48.128;11.602;2024-02-23T00:35:07;1.90;;;0.60;;
990;SDS011;484;48.128;11.602;2024-02-23T00:37:54;0.50;;;0.50;;
990;SDS011;484;48.128;11.602;2024-02-23T00:40:40;0.57;;;0.57;;
990;SDS011;484;48.128;11.602;2024-02-23T00:43:25;0.50;;;0.50;;
990;SDS011;484;48.128;11.602;2024-02-23T00:46:13;0.50;;;0.50;;
990;SDS011;484;48.128;11.602;2024-02-23T00:48:59;0.70;;;0.60;;
990;SDS011;484;48.128;11.602;2024-02-23T00:51:45;0.90;;;0.70;;
990;SDS011;484;48.128;11.602;2024-02-23T00:54:32;0.60;;;0.60;;
990;SDS011;484;48.128;11.602;2024-02-23T00:57:17;0.50;;;0.50;;
990;SDS011;484;48.128;11.602;2024-02-23T01:00:10;0.67;;;0.50;;
990;SDS011;484;48.128;11.602;2024-02-23T01:02:56;0.50;;;0.50;;
990;SDS011;484;48.128;11.602;2024-02-23T01:05:43;0.50;;;0.50;;
990;SDS011;484;48.128;11.602;2024-02-23T01:08:28;0.80;;;0.70;;
990;SDS011;484;48.128;11.602;2024-02-23T01:11:17;1.30;;;0.60;;
990;SDS011;484;48.128;11.602;2024-02-23T01:14:03;0.57;;;0.57;;
990;SDS011;484;48.128;11.602;2024-02-23T01:16:50;0.53;;;0.53;;
990;SDS011;484;48.128;11.602;2024-02-23T01:19:36;0.60;;;0.60;;
990;SDS011;484;48.128;11.602;2024-02-23T01:22:21;0.50;;;0.40;;
990;SDS011;484;48.128;11.602;2024-02-23T01:25:07;0.50;;;0.50;;
990;SDS011;484;48.128;11.602;2024-02-23T01:27:55;0.50;;;0.50;;
990;SDS011;484;48.128;11.602;2024-02-23T01:30:41;0.50;;;0.50;;
990;SDS011;484;48.128;11.602;2024-02-23T01:33:26;0.60;;;0.53;;
990;SDS011;484;48.128;11.602;2024-02-23T01:36:12;0.50;;;0.50;;
990;SDS011;484;48.128;11.602;2024-02-23T01:38:57;1.17;;;0.80;;
990;SDS011;484;48.128;11.602;2024-02-23T01:41:43;0.97;;;0.57;;
990;SDS011;484;48.128;11.602;2024-02-23T01:44:30;0.60;;;0.60;;
990;SDS011;484;48.128;11.602;2024-02-23T01:47:16;0.60;;;0.60;;
990;SDS011;484;48.128;11.602;2024-02-23T01:50:01;0.50;;;0.50;;
990;SDS011;484;48.128;11.602;2024-02-23T01:52:48;0.63;;;0.60;;
990;SDS011;484;48.128;11.602;2024-02-23T01:55:35;0.50;;;0.50;;
990;SDS011;484;48.128;11.602;2024-02-23T01:58:22;0.73;;;0.70;;
990;SDS011;484;48.128;11.602;2024-02-23T02:01:08;0.60;;;0.60;;
990;SDS011;484;48.128;11.602;2024-02-23T02:03:54;0.90;;;0.53;;
990;SDS011;484;48.128;11.602;2024-02-23T02:06:40;0.60;;;0.57;;
990;SDS011;484;48.128;11.602;2024-02-23T02:09:25;0.50;;;0.50;;
990;SDS011;484;48.128;11.602;2024-02-23T02:12:11;0.70;;;0.60;;
990;SDS011;484;48.128;11.602;2024-02-23T02:14:56;0.50;;;0.50;;
990;SDS011;484;48.128;11.602;2024-02-23T02:17:46;1.20;;;0.50;;
990;SDS011;484;48.128;11.602;2024-02-23T02:20:32;0.60;;;0.60;;
990;SDS011;484;48.128;11.602;2024-02-23T02:23:18;0.60;;;0.50;;
990;SDS011;484;48.128;11.602;2024-02-23T02:26:04;0.50;;;0.50;;
990;SDS011;484;48.128;11.602;2024-02-23T02:28:49;1.00;;;0.73;;
990;SDS011;484;48.128;11.602;2024-02-23T02:31:36;0.60;;;0.57;;
990;SDS011;484;48.128;11.602;2024-02-23T02:34:26;0.50;;;0.50;;
990;SDS011;484;48.128;11.602;2024-02-23T02:37:12;0.50;;;0.50;;
990;SDS011;484;48.128;11.602;2024-02-23T02:39:58;0.60;;;0.60;;
990;SDS011;484;48.128;11.602;2024-02-23T02:42:43;1.20;;;0.50;;
990;SDS011;484;48.128;11.602;2024-02-23T02:45:28;0.70;;;0.50;;
990;SDS011;484;48.128;11.602;2024-02-23T02:48:14;0.50;;;0.40;;
990;SDS011;484;48.128;11.602;2024-02-23T02:51:01;0.50;;;0.50;;
990;SDS011;484;48.128;11.602;2024-02-23T02:53:46;0.60;;;0.60;;
990;SDS011;484;48.128;11.602;2024-02-23T02:56:31;1.53;;;0.60;;
990;SDS011;484;48.128;11.602;2024-02-23T02:59:17;0.70;;;0.70;;
990;SDS011;484;48.128;11.602;2024-02-23T03:02:03;0.60;;;0.50;;
990;SDS011;484;48.128;11.602;2024-02-23T03:04:48;0.50;;;0.50;;
990;SDS011;484;48.128;11.602;2024-02-23T03:07:35;0.50;;;0.50;;
990;SDS011;484;48.128;11.602;2024-02-23T03:10:20;1.77;;;0.70;;
990;SDS011;484;48.128;11.602;2024-02-23T03:13:06;0.60;;;0.50;;
990;SDS011;484;48.128;11.602;2024-02-23T03:15:51;1.23;;;0.60;;
990;SDS011;484;48.128;11.602;2024-02-23T03:18:37;0.50;;;0.50;;
990;SDS011;484;48.128;11.602;2024-02-23T03:21:22;0.50;;;0.50;;
990;SDS011;484;48.128;11.602;2024-02-23T03:24:09;0.67;;;0.60;;
990;SDS011;484;48.128;11.602;2024-02-23T03:26:54;3.17;;;0.77;;
990;SDS011;484;48.128;11.602;2024-02-23T03:29:40;1.03;;;0.50;;
990;SDS011;484;48.128;11.602;2024-02-23T03:32:26;0.50;;;0.50;;
990;SDS011;484;48.128;11.602;2024-02-23T03:35:11;0.50;;;0.50;;
990;SDS011;484;48.128;11.602;2024-02-23T03:37:57;0.50;;;0.50;;
990;SDS011;484;48.128;11.602;2024-02-23T03:40:44;0.60;;;0.60;;
990;SDS011;484;48.128;11.602;2024-02-23T03:43:29;0.50;;;0.50;;
990;SDS011;484;48.128;11.602;2024-02-23T03:46:14;0.57;;;0.57;;
990;SDS011;484;48.128;11.602;2024-02-23T03:49:01;0.50;;;0.50;;
990;SDS011;484;48.128;11.602;2024-02-23T03:51:47;0.50;;;0.50;;
990;SDS011;484;48.128;11.602;2024-02-23T03:54:32;0.50;;;0.50;;
990;SDS011;484;48.128;11.602;2024-02-23T03:57:19;0.50;;;0.50;;
990;SDS011;484;48.128;11.602;2024-02-23T04:00:05;0.67;;;0.60;;
990;SDS011;484;48.128;11.602;2024-02-23T04:02:51;0.50;;;0.50;;
990;SDS011;484;48.128;11.602;2024-02-23T04:05:36;0.70;;;0.60;;
990;SDS011;484;48.128;11.602;2024-02-23T04:08:22;0.50;;;0.50;;
990;SDS011;484;48.128;11.602;2024-02-23T04:11:07;0.80;;;0.53;;
990;SDS011;484;48.128;11.602;2024-02-23T04:13:54;0.60;;;0.60;;
990;SDS011;484;48.128;11.602;2024-02-23T04:16:40;0.50;;;0.50;;
990;SDS011;484;48.128;11.602;2024-02-23T04:19:25;0.50;;;0.50;;
990;SDS011;484;48.128;11.602;2024-02-23T04:22:11;0.50;;;0.50;;
990;SDS011;484;48.128;11.602;2024-02-23T04:24:56;0.77;;;0.60;;
990;SDS011;484;48.128;11.602;2024-02-23T04:27:42;0.80;;;0.80;;
990;SDS011;484;48.128;11.602;2024-02-23T04:30:29;0.60;;;0.60;;
990;SDS011;484;48.128;11.602;2024-02-23T04:33:15;0.50;;;0.50;;
990;SDS011;484;48.128;11.602;2024-02-23T04:36:00;0.50;;;0.50;;
990;SDS011;484;48.128;11.602;2024-02-23T04:38:47;0.57;;;0.57;;
990;SDS011;484;48.128;11.602;2024-02-23T04:41:32;0.50;;;0.50;;
990;SDS011;484;48.128;11.602;2024-02-23T04:44:18;0.50;;;0.50;;
990;SDS011;484;48.128;11.602;2024-02-23T04:47:05;0.93;;;0.50;;
990;SDS011;484;48.128;11.602;2024-02-23T04:49:50;0.50;;;0.50;;
990;SDS011;484;48.128;11.602;2024-02-23T04:52:36;0.60;;;0.60;;
990;SDS011;484;48.128;11.602;2024-02-23T04:55:21;0.93;;;0.60;;
990;SDS011;484;48.128;11.602;2024-02-23T04:58:07;0.60;;;0.50;;
990;SDS011;484;48.128;11.602;2024-02-23T05:00:52;0.50;;;0.50;;
990;SDS011;484;48.128;11.602;2024-02-23T05:03:40;0.50;;;0.50;;
990;SDS011;484;48.128;11.602;2024-02-23T05:06:26;1.37;;;0.50;;
990;SDS011;484;48.128;11.602;2024-02-23T05:09:11;0.87;;;0.87;;
990;SDS011;484;48.128;11.602;2024-02-23T05:12:00;1.03;;;0.83;;
990;SDS011;484;48.128;11.602;2024-02-23T05:14:45;0.60;;;0.60;;
990;SDS011;484;48.128;11.602;2024-02-23T05:17:31;1.03;;;0.60;;
990;SDS011;484;48.128;11.602;2024-02-23T05:20:17;0.63;;;0.63;;
990;SDS011;484;48.128;11.602;2024-02-23T05:23:03;0.60;;;0.50;;
990;SDS011;484;48.128;11.602;2024-02-23T05:25:49;1.23;;;0.80;;
990;SDS011;484;48.128;11.602;2024-02-23T05:28:34;0.60;;;0.50;;
990;SDS011;484;48.128;11.602;2024-02-23T05:31:22;0.50;;;0.50;;
990;SDS011;484;48.128;11.602;2024-02-23T05:34:31;0.50;;;0.50;;
990;SDS011;484;48.128;11.602;2024-02-23T05:37:20;0.60;;;0.57;;
990;SDS011;484;48.128;11.602;2024-02-23T05:40:07;0.67;;;0.50;;
990;SDS011;484;48.128;11.602;2024-02-23T05:42:54;0.60;;;0.60;;
990;SDS011;484;48.128;11.602;2024-02-23T05:45:39;0.60;;;0.60;;
990;SDS011;484;48.128;11.602;2024-02-23T05:48:25;0.60;;;0.60;;
990;SDS011;484;48.128;11.602;2024-02-23T05:51:12;0.63;;;0.63;;
990;SDS011;484;48.128;11.602;2024-02-23T05:53:59;0.60;;;0.60;;
990;SDS011;484;48.128;11.602;2024-02-23T05:56:45;0.70;;;0.60;;
990;SDS011;484;48.128;11.602;2024-02-23T05:59:30;0.60;;;0.60;;
990;SDS011;484;48.128;11.602;2024-02-23T06:02:15;0.60;;;0.60;;
990;SDS011;484;48.128;11.602;2024-02-23T06:05:02;1.30;;;1.10;;
990;SDS011;484;48.128;11.602;2024-02-23T06:07:48;1.10;;;0.60;;
990;SDS011;484;48.128;11.602;2024-02-23T06:10:35;1.50;;;0.83;;
990;SDS011;484;48.128;11.602;2024-02-23T06:13:21;0.60;;;0.60;;
990;SDS011;484;48.128;11.602;2024-02-23T06:16:09;0.80;;;0.80;;
990;SDS011;484;48.128;11.602;2024-02-23T06:18:55;0.60;;;0.60;;
990;SDS011;484;48.128;11.602;2024-02-23T06:21:42;0.60;;;0.60;;
990;SDS011;484;48.128;11.602;2024-02-23T06:24:27;0.50;;;0.50;;
990;SDS011;484;48.128;11.602;2024-02-23T06:27:14;0.60;;;0.60;;
990;SDS011;484;48.128;11.602;2024-02-23T06:30:00;0.90;;;0.70;;
990;SDS011;484;48.128;11.602;2024-02-23T06:32:46;0.93;;;0.90;;
990;SDS011;484;48.128;11.602;2024-02-23T06:35:31;0.60;;;0.60;;
990;SDS011;484;48.128;11.602;2024-02-23T06:38:17;0.80;;;0.70;;
990;SDS011;484;48.128;11.602;2024-02-23T06:41:03;0.80;;;0.70;;
990;SDS011;484;48.128;11.602;2024-02-23T06:43:51;3.57;;;1.07;;
990;SDS011;484;48.128;11.602;2024-02-23T06:46:36;1.07;;;0.90;;
990;SDS011;484;48.128;11.602;2024-02-23T06:49:22;0.70;;;0.60;;
990;SDS011;484;48.128;11.602;2024-02-23T06:52:08;0.70;;;0.70;;
990;SDS011;484;48.128;11.602;2024-02-23T06:54:53;1.60;;;1.00;;
990;SDS011;484;48.128;11.602;2024-02-23T06:57:38;0.90;;;0.80;;
990;SDS011;484;48.128;11.602;2024-02-23T07:00:25;1.07;;;0.60;;
990;SDS011;484;48.128;11.602;2024-02-23T07:03:11;0.90;;;0.73;;
990;SDS011;484;48.128;11.602;2024-02-23T07:05:56;0.60;;;0.60;;
990;SDS011;484;48.128;11.602;2024-02-23T07:08:42;0.67;;;0.67;;
990;SDS011;484;48.128;11.602;2024-02-23T07:11:28;0.83;;;0.80;;
990;SDS011;484;48.128;11.602;2024-02-23T07:14:13;0.70;;;0.70;;
990;SDS011;484;48.128;11.602;2024-02-23T07:17:02;1.00;;;0.70;;
990;SDS011;484;48.128;11.602;2024-02-23T07:19:48;1.27;;;0.77;;
990;SDS011;484;48.128;11.602;2024-02-23T07:22:34;2.17;;;0.70;;
990;SDS011;484;48.128;11.602;2024-02-23T07:25:20;1.53;;;0.90;;
990;SDS011;484;48.128;11.602;2024-02-23T07:28:05;0.80;;;0.80;;
990;SDS011;484;48.128;11.602;2024-02-23T07:30:50;0.63;;;0.63;;
990;SDS011;484;48.128;11.602;2024-02-23T07:33:39;1.17;;;0.80;;
990;SDS011;484;48.128;11.602;2024-02-23T07:36:27;1.27;;;0.80;;
990;SDS011;484;48.128;11.602;2024-02-23T07:39:13;0.90;;;0.90;;
990;SDS011;484;48.128;11.602;2024-02-23T07:41:58;0.80;;;0.70;;
990;SDS011;484;48.128;11.602;2024-02-23T07:44:44;2.27;;;1.07;;
990;SDS011;484;48.128;11.602;2024-02-23T07:47:29;0.70;;;0.60;;
990;SDS011;484;48.128;11.602;2024-02-23T07:50:16;0.60;;;0.57;;
990;SDS011;484;48.128;11.602;2024-02-23T07:53:03;7.47;;;0.90;;
990;SDS011;484;48.128;11.602;2024-02-23T07:55:49;0.67;;;0.67;;
990;SDS011;484;48.128;11.602;2024-02-23T07:58:34;0.80;;;0.80;;
990;SDS011;484;48.128;11.602;2024-02-23T08:01:20;1.10;;;0.97;;
990;SDS011;484;48.128;11.602;2024-02-23T08:04:05;0.60;;;0.60;;
990;SDS011;484;48.128;11.602;2024-02-23T08:06:52;1.67;;;1.00;;
990;SDS011;484;48.128;11.602;2024-02-23T08:09:38;1.07;;;0.93;;
990;SDS011;484;48.128;11.602;2024-02-23T08:12:24;0.97;;;0.80;;
990;SDS011;484;48.128;11.602;2024-02-23T08:15:10;1.70;;;1.00;;
990;SDS011;484;48.128;11.602;2024-02-23T08:17:56;0.70;;;0.60;;
990;SDS011;484;48.128;11.602;2024-02-23T08:20:41;0.60;;;0.60;;
990;SDS011;484;48.128;11.602;2024-02-23T08:23:28;0.80;;;0.70;;
990;SDS011;484;48.128;11.602;2024-02-23T08:26:14;1.43;;;1.20;;
990;SDS011;484;48.128;11.602;2024-02-23T08:29:00;0.80;;;0.80;;
990;SDS011;484;48.128;11.602;2024-02-23T08:31:46;2.57;;;0.90;;
990;SDS011;484;48.128;11.602;2024-02-23T08:34:31;4.20;;;0.70;;
990;SDS011;484;48.128;11.602;2024-02-23T08:37:17;1.80;;;0.90;;
990;SDS011;484;48.128;11.602;2024-02-23T08:40:11;0.60;;;0.60;;
990;SDS011;484;48.128;11.602;2024-02-23T08:42:56;0.80;;;0.63;;
990;SDS011;484;48.128;11.602;2024-02-23T08:45:46;0.80;;;0.80;;
990;SDS011;484;48.128;11.602;2024-02-23T08:48:32;2.87;;;0.83;;
990;SDS011;484;48.128;11.602;2024-02-23T08:51:18;4.57;;;0.80;;
990;SDS011;484;48.128;11.602;2024-02-23T08:54:03;2.10;;;0.73;;
990;SDS011;484;48.128;11.602;2024-02-23T08:56:51;0.80;;;0.80;;
990;SDS011;484;48.128;11.602;2024-02-23T08:59:37;0.73;;;0.73;;
990;SDS011;484;48.128;11.602;2024-02-23T09:02:22;0.70;;;0.70;;
990;SDS011;484;48.128;11.602;2024-02-23T09:05:08;1.33;;;0.77;;
990;SDS011;484;48.128;11.602;2024-02-23T09:07:54;0.70;;;0.70;;
990;SDS011;484;48.128;11.602;2024-02-23T09:10:39;0.80;;;0.80;;
990;SDS011;484;48.128;11.602;2024-02-23T09:13:26;0.80;;;0.80;;
990;SDS011;484;48.128;11.602;2024-02-23T09:16:13;0.83;;;0.60;;
990;SDS011;484;48.128;11.602;2024-02-23T09:19:00;1.03;;;0.93;;
990;SDS011;484;48.128;11.602;2024-02-23T09:21:47;0.60;;;0.60;;
990;SDS011;484;48.128;11.602;2024-02-23T09:24:33;1.43;;;0.90;;
990;SDS011;484;48.128;11.602;2024-02-23T09:27:20;0.90;;;0.70;;
990;SDS011;484;48.128;11.602;2024-02-23T09:30:07;2.40;;;1.33;;
990;SDS011;484;48.128;11.602;2024-02-23T09:32:54;1.13;;;0.97;;
990;SDS011;484;48.128;11.602;2024-02-23T09:35:40;4.00;;;1.07;;
990;SDS011;484;48.128;11.602;2024-02-23T09:38:26;2.10;;;0.70;;
990;SDS011;484;48.128;11.602;2024-02-23T09:41:13;0.60;;;0.60;;
990;SDS011;484;48.128;11.602;2024-02-23T09:44:03;1.63;;;0.90;;
990;SDS011;484;48.128;11.602;2024-02-23T09:46:52;1.10;;;1.00;;
990;SDS011;484;48.128;11.602;2024-02-23T09:49:39;0.90;;;0.90;;
990;SDS011;484;48.128;11.602;2024-02-23T09:52:25;1.33;;;0.80;;
990;SDS011;484;48.128;11.602;2024-02-23T09:55:12;1.23;;;0.80;;
990;SDS011;484;48.128;11.602;2024-02-23T09:57:58;0.70;;;0.60;;
990;SDS011;484;48.128;11.602;2024-02-23T10:00:44;3.00;;;0.90;;
990;SDS011;484;48.128;11.602;2024-02-23T10:03:31;0.93;;;0.70;;
990;SDS011;484;48.128;11.602;2024-02-23T10:06:16;1.37;;;0.80;;
990;SDS011;484;48.128;11.602;2024-02-23T10:09:02;1.63;;;0.70;;
990;SDS011;484;48.128;11.602;2024-02-23T10:11:51;6.17;;;1.40;;
990;SDS011;484;48.128;11.602;2024-02-23T10:14:37;1.30;;;1.00;;
990;SDS011;484;48.128;11.602;2024-02-23T10:17:22;0.60;;;0.60;;
990;SDS011;484;48.128;11.602;2024-02-23T10:20:10;1.00;;;0.70;;
990;SDS011;484;48.128;11.602;2024-02-23T10:22:56;1.13;;;0.60;;
990;SDS011;484;48.128;11.602;2024-02-23T10:25:41;2.30;;;0.77;;
990;SDS011;484;48.128;11.602;2024-02-23T10:28:27;0.60;;;0.60;;
990;SDS011;484;48.128;11.602;2024-02-23T10:31:12;0.60;;;0.60;;
990;SDS011;484;48.128;11.602;2024-02-23T10:33:57;0.60;;;0.60;;
990;SDS011;484;48.128;11.602;2024-02-23T10:36:46;0.97;;;0.90;;
990;SDS011;484;48.128;11.602;2024-02-23T10:39:34;0.93;;;0.90;;
990;SDS011;484;48.128;11.602;2024-02-23T10:42:21;0.70;;;0.67;;
990;SDS011;484;48.128;11.602;2024-02-23T10:45:09;0.60;;;0.60;;
990;SDS011;484;48.128;11.602;2024-02-23T10:47:54;3.13;;;2.80;;
990;SDS011;484;48.128;11.602;2024-02-23T10:50:40;1.37;;;0.73;;
990;SDS011;484;48.128;11.602;2024-02-23T10:53:29;1.00;;;0.90;;
990;SDS011;484;48.128;11.602;2024-02-23T10:56:15;0.70;;;0.70;;
990;SDS011;484;48.128;11.602;2024-02-23T10:59:00;0.70;;;0.70;;
990;SDS011;484;48.128;11.602;2024-02-23T11:01:46;0.83;;;0.70;;
990;SDS011;484;48.128;11.602;2024-02-23T11:04:33;0.80;;;0.80;;
990;SDS011;484;48.128;11.602;2024-02-23T11:07:19;1.70;;;0.60;;
990;SDS011;484;48.128;11.602;2024-02-23T11:10:07;0.80;;;0.80;;
990;SDS011;484;48.128;11.602;2024-02-23T11:12:57;1.50;;;1.00;;
990;SDS011;484;48.128;11.602;2024-02-23T11:15:43;1.00;;;0.80;;
990;SDS011;484;48.128;11.602;2024-02-23T11:18:29;1.10;;;1.00;;
990;SDS011;484;48.128;11.602;2024-02-23T11:21:16;0.93;;;0.90;;
990;SDS011;484;48.128;11.602;2024-02-23T11:24:02;1.63;;;0.70;;
990;SDS011;484;48.128;11.602;2024-02-23T11:26:49;0.60;;;0.60;;
990;SDS011;484;48.128;11.602;2024-02-23T11:29:35;0.90;;;0.70;;
990;SDS011;484;48.128;11.602;2024-02-23T11:32:23;0.90;;;0.60;;
990;SDS011;484;48.128;11.602;2024-02-23T11:35:20;0.67;;;0.67;;
990;SDS011;484;48.128;11.602;2024-02-23T21:29:43;1.40;;;1.30;;
990;SDS011;484;48.128;11.602;2024-02-23T21:32:29;1.17;;;1.17;;
990;SDS011;484;48.128;11.602;2024-02-23T21:35:14;1.00;;;0.90;;
990;SDS011;484;48.128;11.602;2024-02-23T21:38:03;1.23;;;1.13;;
990;SDS011;484;48.128;11.602;2024-02-23T21:40:49;1.37;;;1.27;;
990;SDS011;484;48.128;11.602;2024-02-23T21:43:34;1.60;;;1.33;;
990;SDS011;484;48.128;11.602;2024-02-23T21:46:21;1.80;;;1.70;;
990;SDS011;484;48.128;11.602;2024-02-23T21:49:06;1.50;;;1.40;;
990;SDS011;484;48.128;11.602;2024-02-23T21:51:52;1.20;;;1.10;;
990;SDS011;484;48.128;11.602;2024-02-23T21:54:38;2.13;;;1.30;;
990;SDS011;484;48.128;11.602;2024-02-23T21:57:24;2.20;;;1.77;;
990;SDS011;484;48.128;11.602;2024-02-23T22:00:10;2.63;;;1.43;;
990;SDS011;484;48.128;11.602;2024-02-23T22:02:57;3.50;;;1.87;;
990;SDS011;484;48.128;11.602;2024-02-23T22:05:46;1.70;;;1.60;;
990;SDS011;484;48.128;11.602;2024-02-23T22:08:32;1.70;;;1.60;;
990;SDS011;484;48.128;11.602;2024-02-23T22:11:17;1.40;;;1.30;;
990;SDS011;484;48.128;11.602;2024-02-23T22:14:03;1.70;;;1.17;;
990;SDS011;484;48.128;11.602;2024-02-23T22:16:48;1.80;;;1.20;;
990;SDS011;484;48.128;11.602;2024-02-23T22:19:35;1.43;;;1.23;;
990;SDS011;484;48.128;11.602;2024-02-23T22:22:23;1.30;;;1.20;;
990;SDS011;484;48.128;11.602;2024-02-23T22:25:11;1.30;;;1.20;;
990;SDS011;484;48.128;11.602;2024-02-23T22:27:56;2.17;;;2.00;;
990;SDS011;484;48.128;11.602;2024-02-23T22:30:42;2.13;;;1.43;;
990;SDS011;484;48.128;11.602;2024-02-23T22:33:28;1.70;;;1.43;;
990;SDS011;484;48.128;11.602;2024-02-23T22:36:14;2.17;;;2.07;;
990;SDS011;484;48.128;11.602;2024-02-23T22:39:00;1.30;;;1.20;;
990;SDS011;484;48.128;11.602;2024-02-23T22:41:45;1.17;;;1.07;;
990;SDS011;484;48.128;11.602;2024-02-23T22:44:31;1.40;;;1.30;;
990;SDS011;484;48.128;11.602;2024-02-23T22:47:16;1.73;;;1.20;;
990;SDS011;484;48.128;11.602;2024-02-23T22:50:02;2.13;;;1.20;;
990;SDS011;484;48.128;11.602;2024-02-23T22:52:49;1.77;;;1.20;;
990;SDS011;484;48.128;11.602;2024-02-23T22:55:35;1.10;;;1.10;;
990;SDS011;484;48.128;11.602;2024-02-23T22:58:20;1.13;;;1.03;;
990;SDS011;484;48.128;11.602;2024-02-23T23:01:05;1.53;;;1.37;;
990;SDS011;484;48.128;11.602;2024-02-23T23:03:53;0.90;;;0.90;;
990;SDS011;484;48.128;11.602;2024-02-23T23:06:38;1.37;;;1.20;;
990;SDS011;484;48.128;11.602;2024-02-23T23:09:29;1.43;;;1.10;;
990;SDS011;484;48.128;11.602;2024-02-23T23:12:15;1.00;;;1.00;;
990;SDS011;484;48.128;11.602;2024-02-23T23:15:01;0.90;;;0.80;;
990;SDS011;484;48.128;11.602;2024-02-23T23:17:46;2.17;;;1.97;;
990;SDS011;484;48.128;11.602;2024-02-23T23:20:32;2.47;;;1.57;;
990;SDS011;484;48.128;11.602;2024-02-23T23:23:17;1.80;;;1.70;;
990;SDS011;484;48.128;11.602;2024-02-23T23:26:04;0.90;;;0.90;;
990;SDS011;484;48.128;11.602;2024-02-23T23:28:50;0.90;;;0.90;;
990;SDS011;484;48.128;11.602;2024-02-23T23:31:35;1.63;;;1.53;;
990;SDS011;484;48.128;11.602;2024-02-23T23:34:21;3.43;;;1.67;;
990;SDS011;484;48.128;11.602;2024-02-23T23:37:07;0.80;;;0.80;;
990;SDS011;484;48.128;11.602;2024-02-23T23:39:52;1.20;;;1.10;;
990;SDS011;484;48.128;11.602;2024-02-23T23:42:39;3.80;;;1.13;;
990;SDS011;484;48.128;11.602;2024-02-23T23:45:25;1.43;;;1.33;;
990;SDS011;484;48.128;11.602;2024-02-23T23:48:10;3.03;;;1.17;;
990;SDS011;484;48.128;11.602;2024-02-23T23:50:56;0.90;;;0.90;;
990;SDS011;484;48.128;11.602;2024-02-23T23:53:43;0.70;;;0.70;;
990;SDS011;484;48.128;11.602;2024-02-23T23:56:28;1.20;;;1.20;;
990;SDS011;484;48.128;11.602;2024-02-23T23:59:16;2.23;;;1.50;;
